Time;durP1;ratioP1;P1;durP2;ratioP2;P2;SDS_P1;SDS_P2;PMS_P1;PMS_P2;Temp;Humidity;BMP_temperature;BMP_pressure;BME280_temperature;BME280_humidity;BME280_pressure;Samples;Min_cycle;Max_cycle;Signal;HPM_P1;HPM_P2
2023/08/05 00:45:57;;;;;;;16.00;3.65;;;;;;;;;;5050202;28;20067;-89
2023/08/05 00:48:26;;;;;;;10.25;3.40;;;;;;;;;;5046493;28;20109;-88
2023/08/05 00:50:54;;;;;;;12.48;3.88;;;;;;;;;;5041860;28;20230;-88
2023/08/05 00:53:23;;;;;;;7.78;3.15;;;;;;;;;;5021946;28;20483;-89
2023/08/05 00:55:51;;;;;;;9.38;4.05;;;;;;;;;;5048247;28;20029;-88
2023/08/05 00:58:44;;;;;;;12.00;3.85;;;;;;;;;;5267874;22;20036;-88
2023/08/05 01:01:12;;;;;;;9.80;4.10;;;;;;;;;;5075297;28;20064;-88
2023/08/05 01:03:40;;;;;;;13.88;4.25;;;;;;;;;;5074237;28;20052;-88
2023/08/05 01:06:11;;;;;;;12.20;3.88;;;;;;;;;;5061399;28;20044;-88
2023/08/05 01:08:39;;;;;;;14.15;3.92;;;;;;;;;;5081179;28;20049;-88
2023/08/05 01:11:06;;;;;;;13.50;3.72;;;;;;;;;;5079553;28;20117;-88
2023/08/05 01:13:34;;;;;;;10.70;4.30;;;;;;;;;;5079802;28;20059;-88
2023/08/05 01:16:02;;;;;;;9.73;4.00;;;;;;;;;;5062466;28;20057;-88
2023/08/05 01:18:30;;;;;;;8.93;3.85;;;;;;;;;;5062091;28;20052;-88
2023/08/05 01:21:08;;;;;;;6.63;3.88;;;;;;;;;;5080506;28;20054;-88
2023/08/05 01:23:40;;;;;;;6.88;3.42;;;;;;;;;;5063728;28;20347;-88
2023/08/05 01:26:10;;;;;;;11.50;4.03;;;;;;;;;;5076496;28;20139;-87
2023/08/05 01:28:38;;;;;;;16.85;4.75;;;;;;;;;;5078372;28;20044;-88
2023/08/05 01:31:06;;;;;;;11.80;4.72;;;;;;;;;;5063566;28;20212;-88
2023/08/05 01:33:33;;;;;;;29.52;5.50;;;;;;;;;;5064905;28;20053;-87
2023/08/05 01:36:00;;;;;;;14.90;4.30;;;;;;;;;;5078677;28;20056;-87
2023/08/05 01:38:28;;;;;;;6.55;3.90;;;;;;;;;;5096581;28;20074;-89
2023/08/05 01:40:55;;;;;;;11.82;4.00;;;;;;;;;;5078848;28;20215;-89
2023/08/05 01:43:24;;;;;;;8.85;4.03;;;;;;;;;;5080627;28;20041;-89
2023/08/05 01:45:54;;;;;;;13.32;4.68;;;;;;;;;;5080631;28;20120;-86
2023/08/05 01:48:24;;;;;;;16.88;4.50;;;;;;;;;;5069585;28;20224;-87
2023/08/05 01:50:51;;;;;;;13.63;5.30;;;;;;;;;;5063981;28;20050;-88
2023/08/05 01:53:18;;;;;;;10.35;4.60;;;;;;;;;;5064245;28;20131;-88
2023/08/05 01:55:45;;;;;;;13.95;4.60;;;;;;;;;;5079314;28;20032;-88
2023/08/05 01:58:28;;;;;;;12.13;4.82;;;;;;;;;;5085115;28;20041;-89
2023/08/05 02:01:09;;;;;;;12.48;4.88;;;;;;;;;;5084579;28;20063;-88
2023/08/05 02:14:11;;;;;;;10.32;4.32;;;;;;;;;;5932505;22;20127;-87
2023/08/05 02:47:53;;;;;;;7.90;5.32;;;;;;;;;;5286789;22;20091;-89
2023/08/05 02:50:28;;;;;;;15.68;5.82;;;;;;;;;;5078366;28;20039;-88
2023/08/05 02:52:56;;;;;;;13.00;5.88;;;;;;;;;;5073967;28;20426;-88
2023/08/05 02:55:23;;;;;;;13.13;6.30;;;;;;;;;;5045584;28;20111;-88
2023/08/05 02:57:50;;;;;;;8.82;5.53;;;;;;;;;;5044363;28;20049;-88
2023/08/05 03:00:19;;;;;;;12.85;5.80;;;;;;;;;;5045927;28;20049;-88
2023/08/05 03:02:49;;;;;;;13.73;6.82;;;;;;;;;;5046733;28;20047;-88
2023/08/05 03:05:16;;;;;;;9.85;5.95;;;;;;;;;;5069895;28;20104;-88
2023/08/05 03:07:43;;;;;;;18.77;6.05;;;;;;;;;;5065826;28;20171;-88
2023/08/05 03:10:16;;;;;;;13.68;6.25;;;;;;;;;;5059862;28;20079;-88
2023/08/05 03:12:43;;;;;;;19.23;7.07;;;;;;;;;;5044279;28;20033;-88
2023/08/05 03:15:14;;;;;;;13.48;8.00;;;;;;;;;;5043279;28;20053;-88
2023/08/05 03:17:41;;;;;;;12.68;6.88;;;;;;;;;;5062344;28;20051;-88
2023/08/05 03:20:22;;;;;;;16.52;6.28;;;;;;;;;;5061389;28;20080;-89
2023/08/05 03:22:49;;;;;;;16.88;6.18;;;;;;;;;;5044422;28;20056;-88
2023/08/05 03:25:16;;;;;;;18.73;7.32;;;;;;;;;;5043883;28;20053;-88
2023/08/05 03:27:43;;;;;;;20.70;6.90;;;;;;;;;;5044466;28;20045;-88
2023/08/05 03:30:10;;;;;;;12.65;5.45;;;;;;;;;;5061869;28;20616;-87
2023/08/05 03:32:37;;;;;;;18.70;6.55;;;;;;;;;;5062519;28;20045;-87
2023/08/05 03:35:04;;;;;;;13.65;7.93;;;;;;;;;;5044985;28;20053;-88
2023/08/05 03:37:31;;;;;;;18.25;6.13;;;;;;;;;;5062168;28;20059;-88
2023/08/05 03:39:58;;;;;;;13.20;6.10;;;;;;;;;;5062082;28;20213;-88
2023/08/05 03:42:30;;;;;;;15.32;6.40;;;;;;;;;;5045494;28;20098;-87
2023/08/05 03:45:00;;;;;;;13.70;6.15;;;;;;;;;;5061838;28;20342;-88
2023/08/05 03:47:27;;;;;;;16.27;6.50;;;;;;;;;;5043704;28;20147;-89
2023/08/05 03:49:54;;;;;;;18.27;6.57;;;;;;;;;;5060728;28;20165;-88
2023/08/05 03:52:22;;;;;;;13.60;5.55;;;;;;;;;;5059803;28;20446;-88
2023/08/05 03:54:51;;;;;;;12.13;6.15;;;;;;;;;;5043141;28;20134;-88
2023/08/05 03:57:17;;;;;;;11.35;6.05;;;;;;;;;;5043226;28;20178;-88
2023/08/05 03:59:49;;;;;;;13.48;6.68;;;;;;;;;;5063215;28;20087;-88
2023/08/05 04:02:16;;;;;;;15.95;6.13;;;;;;;;;;5063518;28;20063;-87
2023/08/05 04:04:47;;;;;;;15.48;6.82;;;;;;;;;;5063030;28;20080;-88
2023/08/05 04:07:19;;;;;;;16.15;6.10;;;;;;;;;;5046708;28;20226;-88
2023/08/05 04:09:55;;;;;;;13.98;5.88;;;;;;;;;;5062937;28;20060;-88
2023/08/05 04:12:29;;;;;;;13.20;6.60;;;;;;;;;;5045936;28;20049;-88
2023/08/05 04:14:58;;;;;;;10.95;5.88;;;;;;;;;;5046566;28;20238;-88
2023/08/05 04:17:25;;;;;;;17.27;5.88;;;;;;;;;;5069383;28;20083;-87
2023/08/05 04:19:53;;;;;;;14.10;5.88;;;;;;;;;;5066277;28;20048;-87
2023/08/05 04:22:22;;;;;;;12.02;6.28;;;;;;;;;;5052372;28;20277;-88
2023/08/05 04:24:51;;;;;;;13.77;5.97;;;;;;;;;;5051768;28;20072;-88
2023/08/05 04:27:21;;;;;;;17.35;6.30;;;;;;;;;;5067448;28;20045;-88
2023/08/05 04:29:49;;;;;;;12.70;5.70;;;;;;;;;;5047736;28;20075;-87
2023/08/05 04:32:18;;;;;;;14.80;6.78;;;;;;;;;;5061108;28;20130;-88
2023/08/05 04:34:46;;;;;;;18.15;6.70;;;;;;;;;;5060078;28;20045;-88
2023/08/05 04:37:17;;;;;;;12.00;6.05;;;;;;;;;;5059288;28;20075;-87
2023/08/05 04:40:02;;;;;;;13.35;6.40;;;;;;;;;;5061754;28;20044;-87
2023/08/05 04:42:32;;;;;;;19.50;7.25;;;;;;;;;;5060564;28;20339;-88
2023/08/05 04:45:00;;;;;;;16.15;6.70;;;;;;;;;;5060814;28;20056;-88
2023/08/05 04:47:27;;;;;;;18.00;7.50;;;;;;;;;;5065472;28;20087;-88
2023/08/05 04:49:58;;;;;;;18.33;7.22;;;;;;;;;;5062989;28;20313;-88
2023/08/05 04:52:25;;;;;;;17.30;6.75;;;;;;;;;;5044502;28;20060;-88
2023/08/05 04:54:53;;;;;;;15.07;7.47;;;;;;;;;;5045367;28;20466;-88
2023/08/05 04:57:22;;;;;;;14.05;6.88;;;;;;;;;;5063934;28;20037;-88
2023/08/05 04:59:49;;;;;;;17.52;8.13;;;;;;;;;;5044475;28;20076;-88
2023/08/05 05:02:21;;;;;;;14.00;7.57;;;;;;;;;;5042638;28;20104;-88
2023/08/05 05:04:48;;;;;;;18.73;8.55;;;;;;;;;;5059584;28;20049;-88
2023/08/05 05:07:16;;;;;;;18.00;7.75;;;;;;;;;;5045055;28;20056;-87
2023/08/05 05:09:43;;;;;;;15.95;7.07;;;;;;;;;;5046065;28;20130;-88
2023/08/05 05:12:09;;;;;;;12.90;6.10;;;;;;;;;;5045331;28;20110;-88
2023/08/05 05:14:46;;;;;;;11.05;5.50;;;;;;;;;;5062855;28;20041;-88
2023/08/05 05:17:17;;;;;;;10.32;5.45;;;;;;;;;;5046725;28;20041;-88
2023/08/05 05:19:47;;;;;;;9.57;4.85;;;;;;;;;;5059784;28;20065;-88
2023/08/05 05:22:18;;;;;;;10.18;3.60;;;;;;;;;;5061632;28;20117;-89
2023/08/05 05:24:50;;;;;;;7.97;3.78;;;;;;;;;;5079064;28;20051;-89
2023/08/05 05:27:18;;;;;;;6.22;2.75;;;;;;;;;;5050949;28;20053;-88
2023/08/05 05:29:44;;;;;;;8.63;3.30;;;;;;;;;;5066794;28;20372;-88
2023/08/05 05:32:21;;;;;;;6.97;3.22;;;;;;;;;;5045500;28;20138;-89
2023/08/05 05:34:48;;;;;;;8.85;3.40;;;;;;;;;;5061814;28;20425;-89
2023/08/05 05:37:15;;;;;;;8.95;3.30;;;;;;;;;;5044326;28;20048;-89
2023/08/05 05:39:42;;;;;;;5.75;2.78;;;;;;;;;;5044661;28;20101;-88
2023/08/05 05:42:08;;;;;;;5.32;3.03;;;;;;;;;;5048698;28;20055;-89
2023/08/05 05:44:38;;;;;;;8.88;3.10;;;;;;;;;;5048461;28;20056;-88
2023/08/05 05:47:07;;;;;;;5.45;3.10;;;;;;;;;;5046536;28;20097;-89
2023/08/05 05:49:34;;;;;;;13.63;2.80;;;;;;;;;;5068011;28;20110;-88
2023/08/05 05:52:04;;;;;;;13.52;3.92;;;;;;;;;;5061896;28;20056;-89
2023/08/05 05:54:32;;;;;;;5.47;2.65;;;;;;;;;;5049516;28;20048;-88
2023/08/05 05:56:59;;;;;;;7.28;2.80;;;;;;;;;;5049628;28;20059;-88
2023/08/05 05:59:25;;;;;;;5.68;2.35;;;;;;;;;;5063622;28;20052;-89
2023/08/05 06:01:53;;;;;;;5.38;2.42;;;;;;;;;;5077725;28;20040;-88
2023/08/05 06:07:53;;;;;;;8.02;2.53;;;;;;;;;;5096936;28;20055;-89
2023/08/05 06:10:20;;;;;;;5.93;2.20;;;;;;;;;;5078534;28;20196;-89
2023/08/05 06:12:48;;;;;;;5.13;2.17;;;;;;;;;;5085608;28;20049;-88
2023/08/05 06:15:18;;;;;;;7.10;2.13;;;;;;;;;;5058577;28;20044;-88
2023/08/05 06:17:46;;;;;;;6.80;1.95;;;;;;;;;;5057301;28;20045;-88
2023/08/05 06:20:14;;;;;;;4.40;1.60;;;;;;;;;;5074736;28;20032;-86
2023/08/05 06:22:55;;;;;;;4.53;2.03;;;;;;;;;;5058566;28;20086;-89
2023/08/05 06:25:24;;;;;;;5.93;1.65;;;;;;;;;;5061810;28;20045;-88
2023/08/05 06:27:52;;;;;;;2.75;1.50;;;;;;;;;;5095358;28;20075;-89
2023/08/05 06:30:38;;;;;;;4.15;1.73;;;;;;;;;;5095197;28;20048;-88
2023/08/05 06:33:10;;;;;;;7.03;2.03;;;;;;;;;;5078846;28;20044;-88
2023/08/05 06:35:37;;;;;;;4.35;1.77;;;;;;;;;;5095506;28;20045;-88
2023/08/05 06:38:06;;;;;;;6.32;1.67;;;;;;;;;;5094559;28;20052;-88
2023/08/05 06:40:41;;;;;;;7.43;1.80;;;;;;;;;;5079308;28;20058;-89
2023/08/05 06:43:18;;;;;;;3.25;1.35;;;;;;;;;;5079909;28;20071;-91
2023/08/05 06:46:02;;;;;;;7.43;1.63;;;;;;;;;;5076945;28;20132;-89
2023/08/05 06:48:30;;;;;;;4.90;1.60;;;;;;;;;;5089186;28;20095;-89
2023/08/05 06:51:24;;;;;;;10.80;2.10;;;;;;;;;;5060495;28;20079;-89
2023/08/05 06:53:59;;;;;;;5.85;1.33;;;;;;;;;;5076267;28;20064;-88
2023/08/05 06:56:37;;;;;;;5.38;1.60;;;;;;;;;;5075385;28;20049;-88
2023/08/05 06:59:23;;;;;;;6.72;1.52;;;;;;;;;;5074658;28;20091;-88
2023/08/05 07:02:00;;;;;;;7.90;1.75;;;;;;;;;;5060495;28;20032;-88
2023/08/05 07:04:54;;;;;;;3.75;1.17;;;;;;;;;;5056057;28;20052;-89
2023/08/05 07:07:26;;;;;;;5.03;1.40;;;;;;;;;;5072190;28;20045;-88
2023/08/05 07:10:11;;;;;;;4.93;1.30;;;;;;;;;;5072285;28;20107;-89
2023/08/05 07:12:46;;;;;;;5.32;1.45;;;;;;;;;;5057709;28;20064;-89
2023/08/05 07:15:15;;;;;;;4.10;1.10;;;;;;;;;;5056372;28;20048;-87
2023/08/05 07:18:07;;;;;;;5.43;1.50;;;;;;;;;;5072251;28;20060;-89
2023/08/05 07:20:43;;;;;;;7.35;1.45;;;;;;;;;;5072781;28;20052;-89
2023/08/05 07:23:20;;;;;;;8.85;1.73;;;;;;;;;;5072968;28;20067;-88
2023/08/05 07:25:53;;;;;;;5.53;1.25;;;;;;;;;;5076463;28;20040;-89
2023/08/05 07:32:15;;;;;;;5.20;1.63;;;;;;;;;;5072018;28;20067;-89
2023/08/05 07:34:48;;;;;;;6.28;1.25;;;;;;;;;;5069998;28;20247;-88
2023/08/05 07:37:21;;;;;;;2.63;0.88;;;;;;;;;;5054719;28;20049;-88
2023/08/05 07:39:52;;;;;;;3.50;1.25;;;;;;;;;;5053572;28;20128;-88
2023/08/05 07:42:43;;;;;;;4.97;1.08;;;;;;;;;;5070622;28;20063;-89
2023/08/05 07:45:26;;;;;;;4.22;0.98;;;;;;;;;;5070957;28;20049;-90
2023/08/05 07:48:20;;;;;;;4.03;1.08;;;;;;;;;;5078522;28;20044;-89
2023/08/05 07:50:59;;;;;;;4.50;1.27;;;;;;;;;;5074865;28;20076;-90
2023/08/05 07:53:40;;;;;;;2.13;0.82;;;;;;;;;;5052904;28;20041;-89
2023/08/05 07:56:12;;;;;;;5.38;0.93;;;;;;;;;;5052436;28;20048;-89
2023/08/05 07:58:47;;;;;;;2.80;1.10;;;;;;;;;;5051518;28;20069;-89
2023/08/05 08:01:33;;;;;;;6.18;1.20;;;;;;;;;;5047248;28;20053;-87
2023/08/05 08:04:18;;;;;;;3.13;1.33;;;;;;;;;;5050181;28;20033;-87
2023/08/05 08:07:04;;;;;;;4.72;1.00;;;;;;;;;;5051651;28;20108;-88
2023/08/05 08:09:45;;;;;;;4.47;1.30;;;;;;;;;;5051752;28;20416;-87
2023/08/05 08:12:28;;;;;;;5.00;1.00;;;;;;;;;;5053005;28;20036;-89
2023/08/05 08:15:19;;;;;;;3.20;0.90;;;;;;;;;;5067412;28;20060;-87
2023/08/05 08:18:04;;;;;;;3.80;1.00;;;;;;;;;;5049758;28;20423;-88
2023/08/05 08:20:50;;;;;;;3.78;1.20;;;;;;;;;;5053141;28;20040;-87
2023/08/05 08:23:41;;;;;;;1.65;0.90;;;;;;;;;;5063955;28;20105;-88
2023/08/05 08:26:24;;;;;;;1.52;0.90;;;;;;;;;;5045143;28;20035;-88
2023/08/05 08:29:04;;;;;;;1.60;0.80;;;;;;;;;;5058906;28;20045;-88
2023/08/05 08:32:04;;;;;;;4.47;1.20;;;;;;;;;;5048955;28;20087;-87
2023/08/05 08:34:39;;;;;;;3.70;1.10;;;;;;;;;;5063185;28;20248;-87
2023/08/05 08:37:08;;;;;;;5.97;1.40;;;;;;;;;;5044409;28;20162;-87
2023/08/05 08:39:52;;;;;;;2.42;0.80;;;;;;;;;;5045399;28;20048;-87
2023/08/05 08:42:21;;;;;;;3.13;1.05;;;;;;;;;;5044921;28;20224;-87
2023/08/05 08:45:09;;;;;;;4.85;0.95;;;;;;;;;;5045383;28;20339;-87
2023/08/05 08:47:53;;;;;;;6.22;0.90;;;;;;;;;;5047671;28;20175;-88
2023/08/05 08:50:26;;;;;;;2.55;0.95;;;;;;;;;;5063734;28;20066;-87
2023/08/05 08:53:10;;;;;;;4.28;1.52;;;;;;;;;;5081623;28;20239;-87
2023/08/05 08:56:06;;;;;;;5.63;1.02;;;;;;;;;;4550528;27;16150020;-87
2023/08/05 08:58:50;;;;;;;5.03;0.82;;;;;;;;;;5102206;28;20044;-88
2023/08/05 09:01:46;;;;;;;4.78;1.20;;;;;;;;;;5089247;28;20048;-88
2023/08/05 09:04:29;;;;;;;4.05;1.00;;;;;;;;;;5102781;28;20024;-86
2023/08/05 09:07:12;;;;;;;5.47;1.08;;;;;;;;;;5086738;28;20113;-88
2023/08/05 09:09:53;;;;;;;5.20;1.10;;;;;;;;;;5101553;28;20040;-87
2023/08/05 09:12:36;;;;;;;2.55;1.27;;;;;;;;;;5105246;28;20229;-87
2023/08/05 09:15:14;;;;;;;4.03;1.65;;;;;;;;;;5086618;28;20167;-87
2023/08/05 09:17:58;;;;;;;3.33;1.00;;;;;;;;;;5086738;28;20094;-86
2023/08/05 09:20:51;;;;;;;6.32;1.10;;;;;;;;;;5086532;28;20267;-87
2023/08/05 09:23:31;;;;;;;5.00;1.33;;;;;;;;;;5088685;28;20048;-87
2023/08/05 09:26:12;;;;;;;5.97;1.70;;;;;;;;;;5088095;28;20050;-87
2023/08/05 09:29:03;;;;;;;6.40;2.38;;;;;;;;;;5088113;28;20044;-88
2023/08/05 09:31:56;;;;;;;5.78;1.50;;;;;;;;;;5088928;28;20082;-88
2023/08/05 09:34:49;;;;;;;9.60;1.30;;;;;;;;;;5087516;28;20059;-86
2023/08/05 09:37:33;;;;;;;3.75;1.38;;;;;;;;;;5090455;28;20047;-87
2023/08/05 09:40:22;;;;;;;7.45;1.67;;;;;;;;;;5089816;28;20044;-86
2023/08/05 09:43:07;;;;;;;5.85;1.33;;;;;;;;;;5103583;28;20210;-86
2023/08/05 09:45:49;;;;;;;4.68;1.45;;;;;;;;;;5087151;28;20042;-87
2023/08/05 09:48:38;;;;;;;4.35;1.17;;;;;;;;;;5098463;28;20135;-87
2023/08/05 09:51:19;;;;;;;3.40;1.30;;;;;;;;;;5080596;28;20074;-87
2023/08/05 09:54:02;;;;;;;3.20;1.08;;;;;;;;;;5086576;28;20078;-87
2023/08/05 09:56:44;;;;;;;6.75;1.20;;;;;;;;;;5085081;28;20173;-87
2023/08/05 09:59:25;;;;;;;3.80;1.27;;;;;;;;;;5084979;28;20043;-88
2023/08/05 10:02:09;;;;;;;4.57;1.35;;;;;;;;;;5089012;28;20040;-87
2023/08/05 10:05:03;;;;;;;6.45;1.10;;;;;;;;;;5087353;28;20129;-87
2023/08/05 10:07:43;;;;;;;1.92;1.20;;;;;;;;;;5073555;28;20162;-87
2023/08/05 10:10:30;;;;;;;3.83;1.58;;;;;;;;;;5072919;28;20040;-87
2023/08/05 10:13:21;;;;;;;6.13;1.45;;;;;;;;;;5072107;28;20053;-87
2023/08/05 10:16:05;;;;;;;3.47;1.00;;;;;;;;;;5074315;28;20247;-87
2023/08/05 10:18:53;;;;;;;4.32;1.63;;;;;;;;;;5071686;28;20040;-87
2023/08/05 10:21:36;;;;;;;3.55;1.30;;;;;;;;;;5084838;28;20040;-88
2023/08/05 10:24:39;;;;;;;3.67;1.13;;;;;;;;;;5071597;28;20048;-88
2023/08/05 10:27:39;;;;;;;4.53;1.15;;;;;;;;;;5070300;28;20040;-88
2023/08/05 10:30:19;;;;;;;4.35;1.40;;;;;;;;;;5073059;28;20094;-87
2023/08/05 10:33:04;;;;;;;3.72;1.45;;;;;;;;;;5074702;28;20032;-86
2023/08/05 10:35:46;;;;;;;2.40;1.27;;;;;;;;;;5074300;28;20040;-88
2023/08/05 10:38:31;;;;;;;4.47;1.52;;;;;;;;;;5072664;28;20060;-88
2023/08/05 10:41:40;;;;;;;5.82;1.27;;;;;;;;;;5073857;28;20044;-88
2023/08/05 10:44:21;;;;;;;3.17;1.33;;;;;;;;;;5073581;28;20032;-87
2023/08/05 10:47:08;;;;;;;5.35;1.42;;;;;;;;;;5072491;28;20036;-87
2023/08/05 10:49:57;;;;;;;3.00;1.20;;;;;;;;;;5073512;28;20096;-87
2023/08/05 10:52:38;;;;;;;2.53;1.40;;;;;;;;;;5074824;28;20032;-87
2023/08/05 10:55:30;;;;;;;3.03;1.40;;;;;;;;;;5074691;28;20040;-88
2023/08/05 10:58:11;;;;;;;5.68;1.50;;;;;;;;;;5074433;28;20230;-88
2023/08/05 11:01:07;;;;;;;5.80;1.75;;;;;;;;;;5073373;28;20047;-88
2023/08/05 11:03:50;;;;;;;5.75;1.50;;;;;;;;;;5087206;28;20209;-87
2023/08/05 11:06:37;;;;;;;4.00;1.20;;;;;;;;;;5084821;28;20041;-87
2023/08/05 11:09:21;;;;;;;3.67;1.25;;;;;;;;;;5070339;28;20104;-87
2023/08/05 11:12:05;;;;;;;3.50;1.45;;;;;;;;;;5087172;28;20052;-87
2023/08/05 11:14:49;;;;;;;2.80;1.23;;;;;;;;;;5071745;28;20024;-88
2023/08/05 11:17:30;;;;;;;2.55;1.17;;;;;;;;;;5069888;28;20064;-87
2023/08/05 11:20:10;;;;;;;7.20;0.98;;;;;;;;;;5070761;28;20036;-89
2023/08/05 11:22:51;;;;;;;1.48;0.85;;;;;;;;;;5070399;28;20024;-89
2023/08/05 11:25:32;;;;;;;5.20;1.35;;;;;;;;;;5070365;28;20152;-88
2023/08/05 11:28:16;;;;;;;7.63;1.55;;;;;;;;;;5072140;28;20102;-88
2023/08/05 11:31:16;;;;;;;3.95;1.30;;;;;;;;;;5074596;28;20062;-87
2023/08/05 11:33:59;;;;;;;2.50;1.10;;;;;;;;;;5073757;28;20040;-87
2023/08/05 11:36:53;;;;;;;4.55;1.00;;;;;;;;;;5073838;28;20024;-87
2023/08/05 11:39:46;;;;;;;4.40;1.73;;;;;;;;;;5074633;28;20032;-87
2023/08/05 11:42:27;;;;;;;2.42;1.23;;;;;;;;;;5072753;28;20064;-88
2023/08/05 11:45:17;;;;;;;3.03;1.27;;;;;;;;;;5088487;28;20143;-88
2023/08/05 11:47:58;;;;;;;2.13;1.10;;;;;;;;;;5072699;28;20066;-87
2023/08/05 11:50:40;;;;;;;1.92;0.68;;;;;;;;;;5087887;28;20032;-87
2023/08/05 11:56:37;;;;;;;3.22;1.15;;;;;;;;;;5088261;28;20048;-88
2023/08/05 11:59:38;;;;;;;2.70;1.02;;;;;;;;;;5086632;28;20098;-88
2023/08/05 12:02:27;;;;;;;2.47;1.17;;;;;;;;;;5087313;28;20206;-88
2023/08/05 12:05:10;;;;;;;2.65;1.10;;;;;;;;;;5071649;28;20213;-88
2023/08/05 12:07:53;;;;;;;2.55;1.00;;;;;;;;;;5072177;28;20066;-88
2023/08/05 12:10:35;;;;;;;4.15;1.00;;;;;;;;;;5086868;28;20032;-88
2023/08/05 12:13:35;;;;;;;5.38;1.15;;;;;;;;;;5073378;28;20043;-88
2023/08/05 12:16:17;;;;;;;2.70;1.05;;;;;;;;;;5074407;28;20102;-87
2023/08/05 12:18:58;;;;;;;3.13;1.10;;;;;;;;;;5073029;28;20096;-88
2023/08/05 12:21:40;;;;;;;2.25;1.20;;;;;;;;;;5073437;28;20045;-88
2023/08/05 12:24:24;;;;;;;3.78;0.98;;;;;;;;;;5059054;28;20106;-88
2023/08/05 12:27:07;;;;;;;2.15;1.05;;;;;;;;;;5069905;28;20123;-87
2023/08/05 12:29:57;;;;;;;1.85;1.02;;;;;;;;;;5074920;28;20101;-88
2023/08/05 12:32:48;;;;;;;2.20;0.82;;;;;;;;;;5072596;28;20032;-86
2023/08/05 12:35:49;;;;;;;2.97;1.10;;;;;;;;;;5089093;28;20044;-88
2023/08/05 12:38:30;;;;;;;2.03;0.90;;;;;;;;;;5088579;28;20032;-88
2023/08/05 12:41:16;;;;;;;4.03;1.52;;;;;;;;;;5074716;28;20032;-88
2023/08/05 12:44:04;;;;;;;2.50;1.00;;;;;;;;;;5074450;28;20033;-87
2023/08/05 12:46:47;;;;;;;4.00;1.20;;;;;;;;;;5073528;28;20041;-87
2023/08/05 12:49:28;;;;;;;2.35;1.15;;;;;;;;;;5074480;28;20083;-87
2023/08/05 12:52:10;;;;;;;2.53;1.20;;;;;;;;;;5072363;28;20052;-88
2023/08/05 12:54:54;;;;;;;2.20;0.80;;;;;;;;;;5075958;28;20059;-88
2023/08/05 12:57:42;;;;;;;3.15;1.00;;;;;;;;;;5090400;28;20178;-88
2023/08/05 13:00:29;;;;;;;2.97;1.08;;;;;;;;;;5073076;28;20067;-88
2023/08/05 13:03:13;;;;;;;3.80;1.08;;;;;;;;;;5088631;28;20081;-89
2023/08/05 13:05:57;;;;;;;3.15;0.95;;;;;;;;;;5075389;28;20287;-89
2023/08/05 13:08:41;;;;;;;2.13;1.00;;;;;;;;;;5074036;28;20047;-88
2023/08/05 13:11:23;;;;;;;1.80;1.10;;;;;;;;;;5073835;28;20047;-89
2023/08/05 13:14:04;;;;;;;1.25;0.90;;;;;;;;;;5073418;28;20104;-88
2023/08/05 13:16:48;;;;;;;2.05;1.15;;;;;;;;;;5087767;28;20045;-88
2023/08/05 13:19:30;;;;;;;2.53;0.95;;;;;;;;;;5089226;28;20029;-88
2023/08/05 13:22:19;;;;;;;3.47;1.05;;;;;;;;;;5086573;28;20077;-87
2023/08/05 13:25:01;;;;;;;5.20;1.20;;;;;;;;;;5073878;28;20080;-88
2023/08/05 13:27:42;;;;;;;2.60;1.20;;;;;;;;;;5074402;28;20100;-88
2023/08/05 13:30:29;;;;;;;3.38;1.20;;;;;;;;;;5075596;28;20055;-89
2023/08/05 13:33:17;;;;;;;4.38;1.02;;;;;;;;;;5091853;28;20032;-88
2023/08/05 13:36:05;;;;;;;1.08;0.60;;;;;;;;;;5076027;28;20064;-88
2023/08/05 13:38:46;;;;;;;3.38;0.90;;;;;;;;;;5075996;28;20025;-88
2023/08/05 13:41:41;;;;;;;3.90;1.10;;;;;;;;;;5074749;28;20113;-87
2023/08/05 13:44:25;;;;;;;1.92;1.20;;;;;;;;;;5079278;28;20028;-88
2023/08/05 13:47:26;;;;;;;5.53;1.10;;;;;;;;;;5082479;28;20028;-87
2023/08/05 13:53:31;;;;;;;2.03;0.70;;;;;;;;;;5095816;28;20153;-88
2023/08/05 13:56:18;;;;;;;1.85;0.88;;;;;;;;;;5057718;28;20068;-88
2023/08/05 13:59:09;;;;;;;1.63;0.90;;;;;;;;;;5053060;28;20050;-88
2023/08/05 14:01:50;;;;;;;4.40;0.88;;;;;;;;;;5051956;28;20033;-87
2023/08/05 14:04:39;;;;;;;3.08;1.10;;;;;;;;;;5054760;28;20045;-88
2023/08/05 14:07:48;;;;;;;3.63;1.10;;;;;;;;;;5052485;28;20053;-89
2023/08/05 14:10:33;;;;;;;1.13;0.70;;;;;;;;;;5053279;28;20060;-88
2023/08/05 14:13:14;;;;;;;2.08;0.93;;;;;;;;;;5053290;28;20021;-88
2023/08/05 14:15:57;;;;;;;3.17;0.98;;;;;;;;;;5033658;28;20040;-89
2023/08/05 14:18:47;;;;;;;2.63;1.02;;;;;;;;;;5034077;28;20088;-89
2023/08/05 14:21:39;;;;;;;1.73;1.00;;;;;;;;;;5036102;28;20041;-87
2023/08/05 14:27:57;;;;;;;2.95;1.10;;;;;;;;;;5136712;23;20037;-87
2023/08/05 14:30:59;;;;;;;2.83;1.20;;;;;;;;;;5092878;28;20036;-89
2023/08/05 14:33:49;;;;;;;5.80;1.23;;;;;;;;;;5095487;28;20101;-89
2023/08/05 14:43:21;;;;;;;2.33;1.10;;;;;;;;;;5056058;28;20032;-88
2023/08/05 14:46:23;;;;;;;3.45;1.27;;;;;;;;;;5040828;28;20073;-90
2023/08/05 14:49:04;;;;;;;2.13;1.30;;;;;;;;;;5040778;28;20041;-89
2023/08/05 14:58:39;;;;;;;1.92;1.08;;;;;;;;;;5054789;28;20056;-88
2023/08/05 15:01:21;;;;;;;3.05;1.00;;;;;;;;;;5040116;28;20033;-89
2023/08/05 15:04:21;;;;;;;3.10;1.10;;;;;;;;;;5054186;28;20042;-89
2023/08/05 15:07:07;;;;;;;4.05;1.60;;;;;;;;;;5038710;28;20033;-89
2023/08/05 15:10:03;;;;;;;3.47;1.23;;;;;;;;;;5050659;28;20029;-89
2023/08/05 15:12:47;;;;;;;5.17;0.97;;;;;;;;;;5092271;28;20106;-89
2023/08/05 15:15:28;;;;;;;5.22;1.50;;;;;;;;;;5095273;28;20480;-90
2023/08/05 15:18:24;;;;;;;7.72;1.30;;;;;;;;;;5097383;28;20032;-89
2023/08/05 15:21:13;;;;;;;2.28;1.45;;;;;;;;;;5094052;28;20036;-89
2023/08/05 15:24:13;;;;;;;4.80;1.85;;;;;;;;;;5095170;28;20056;-89
2023/08/05 15:26:54;;;;;;;2.45;1.20;;;;;;;;;;5095169;28;20044;-89
2023/08/05 15:29:41;;;;;;;3.25;1.48;;;;;;;;;;5094563;28;20032;-89
2023/08/05 15:36:15;;;;;;;3.97;1.48;;;;;;;;;;5054360;28;20055;-91
2023/08/05 15:45:56;;;;;;;3.05;1.58;;;;;;;;;;5051905;28;20052;-90
2023/08/05 15:48:56;;;;;;;5.57;1.90;;;;;;;;;;5052611;28;20068;-89
2023/08/05 15:55:14;;;;;;;2.20;1.77;;;;;;;;;;5052558;28;20096;-90
2023/08/05 15:58:15;;;;;;;2.65;1.50;;;;;;;;;;5039018;28;20029;-89
2023/08/05 16:01:25;;;;;;;6.15;2.28;;;;;;;;;;5037947;28;20029;-89
2023/08/05 16:04:43;;;;;;;;;;;;;;;;;;;;;
2023/08/05 16:13:56;;;;;;;2.40;1.55;;;;;;;;;;5104593;28;20059;-89
2023/08/05 16:23:29;;;;;;;3.53;1.35;;;;;;;;;;5050798;28;20040;-87
2023/08/05 16:26:44;;;;;;;1.75;1.30;;;;;;;;;;5051356;28;20091;-87
2023/08/05 16:33:27;;;;;;;3.40;2.03;;;;;;;;;;5050591;28;20059;-87
2023/08/05 16:36:47;;;;;;;3.40;1.52;;;;;;;;;;5016248;28;20038;-89
2023/08/05 16:47:49;;;;;;;2.13;1.60;;;;;;;;;;5190353;22;20046;-88
2023/08/05 16:50:31;;;;;;;3.92;2.03;;;;;;;;;;5018703;28;20033;-88
2023/08/05 16:53:16;;;;;;;3.88;2.03;;;;;;;;;;5034023;28;20027;-89
2023/08/05 17:09:29;;;;;;;3.15;1.77;;;;;;;;;;5036209;28;20028;-89
2023/08/05 17:12:11;;;;;;;3.15;1.73;;;;;;;;;;5034328;28;20094;-90
2023/08/05 17:14:53;;;;;;;4.57;2.15;;;;;;;;;;5034558;28;20082;-89
2023/08/05 17:21:01;;;;;;;2.70;1.80;;;;;;;;;;4998123;28;20029;-90
2023/08/05 17:23:44;;;;;;;3.83;2.45;;;;;;;;;;4981366;28;20046;-89
2023/08/05 17:26:27;;;;;;;6.03;2.10;;;;;;;;;;4983387;28;20106;-88
2023/08/05 17:29:15;;;;;;;2.70;1.52;;;;;;;;;;4998099;28;20042;-89
2023/08/05 17:31:57;;;;;;;3.25;1.92;;;;;;;;;;4997706;28;20057;-90
2023/08/05 17:41:25;;;;;;;5.38;2.30;;;;;;;;;;4998793;28;20030;-88
2023/08/05 17:44:06;;;;;;;5.28;2.50;;;;;;;;;;4983847;28;20059;-89
2023/08/05 17:46:47;;;;;;;4.25;2.88;;;;;;;;;;4982379;28;20039;-89
2023/08/05 17:56:22;;;;;;;8.63;3.40;;;;;;;;;;5038133;28;20103;-88
2023/08/05 17:59:28;;;;;;;11.05;3.80;;;;;;;;;;5345203;23;20064;-86
2023/08/05 18:02:32;;;;;;;9.10;3.50;;;;;;;;;;5035112;28;20228;-87
2023/08/05 18:05:52;;;;;;;5.07;2.72;;;;;;;;;;5038099;28;20049;-86
2023/08/05 18:08:38;;;;;;;6.30;2.67;;;;;;;;;;5032172;28;20172;-87
2023/08/05 18:11:07;;;;;;;5.80;2.75;;;;;;;;;;5011882;28;20050;-85
2023/08/05 18:13:38;;;;;;;10.25;3.55;;;;;;;;;;5012464;28;20226;-85
2023/08/05 18:16:10;;;;;;;6.00;2.65;;;;;;;;;;5030807;28;20043;-86
2023/08/05 18:18:51;;;;;;;5.97;2.72;;;;;;;;;;5034534;28;20053;-86
2023/08/05 18:25:03;;;;;;;4.97;2.38;;;;;;;;;;5035101;28;20048;-86
2023/08/05 18:28:04;;;;;;;6.28;2.70;;;;;;;;;;5035133;28;20042;-86
2023/08/05 18:30:47;;;;;;;6.20;2.92;;;;;;;;;;5037104;28;20040;-86
2023/08/05 18:33:39;;;;;;;3.28;2.75;;;;;;;;;;5034282;28;20353;-87
2023/08/05 18:36:21;;;;;;;4.40;2.30;;;;;;;;;;5075203;23;20072;-87
2023/08/05 18:39:22;;;;;;;3.35;2.47;;;;;;;;;;5021165;28;20082;-86
2023/08/05 18:44:58;;;;;;;4.80;2.70;;;;;;;;;;5380120;22;20101;-86
2023/08/05 18:47:44;;;;;;;5.07;3.40;;;;;;;;;;5003837;28;20108;-86
2023/08/05 18:50:17;;;;;;;5.13;2.92;;;;;;;;;;4994574;28;20046;-86
2023/08/05 18:52:51;;;;;;;3.33;2.83;;;;;;;;;;4994224;28;20046;-86
2023/08/05 19:01:53;;;;;;;5.25;3.10;;;;;;;;;;4996529;28;20268;-85
2023/08/05 19:04:21;;;;;;;7.18;3.30;;;;;;;;;;4994438;28;20060;-85
2023/08/05 19:06:48;;;;;;;3.40;2.67;;;;;;;;;;4977384;28;20046;-85
2023/08/05 19:09:15;;;;;;;5.50;3.58;;;;;;;;;;4994781;28;20149;-86
2023/08/05 19:11:42;;;;;;;3.47;2.70;;;;;;;;;;4996322;28;20194;-85
2023/08/05 19:14:09;;;;;;;4.45;3.28;;;;;;;;;;4996734;28;20116;-85
2023/08/05 19:19:58;;;;;;;4.68;3.10;;;;;;;;;;4993400;28;20049;-85